sensor_id;sensor_type;location;lat;lon;timestamp;P1;durP1;ratioP1;P2;durP2;ratioP2
9801;SDS011;4940;50.900;4.672;2023-11-21T00:00:39;101.97;;;67.85;;
9801;SDS011;4940;50.900;4.672;2023-11-21T00:03:07;106.68;;;65.20;;
9801;SDS011;4940;50.900;4.672;2023-11-21T00:05:36;99.75;;;62.30;;
9801;SDS011;4940;50.900;4.672;2023-11-21T00:08:04;101.32;;;64.35;;
9801;SDS011;4940;50.900;4.672;2023-11-21T00:10:31;108.40;;;67.82;;
9801;SDS011;4940;50.900;4.672;2023-11-21T00:12:59;108.97;;;64.53;;
9801;SDS011;4940;50.900;4.672;2023-11-21T00:15:28;94.10;;;61.63;;
9801;SDS011;4940;50.900;4.672;2023-11-21T00:17:56;102.97;;;62.30;;
9801;SDS011;4940;50.900;4.672;2023-11-21T00:20:23;104.78;;;64.18;;
9801;SDS011;4940;50.900;4.672;2023-11-21T00:22:51;106.47;;;63.92;;
9801;SDS011;4940;50.900;4.672;2023-11-21T00:25:18;93.07;;;60.75;;
9801;SDS011;4940;50.900;4.672;2023-11-21T00:27:46;90.85;;;61.97;;
9801;SDS011;4940;50.900;4.672;2023-11-21T00:30:14;95.90;;;64.72;;
9801;SDS011;4940;50.900;4.672;2023-11-21T00:32:41;91.47;;;62.65;;
9801;SDS011;4940;50.900;4.672;2023-11-21T00:35:10;94.70;;;64.50;;
9801;SDS011;4940;50.900;4.672;2023-11-21T00:37:37;98.57;;;64.63;;
9801;SDS011;4940;50.900;4.672;2023-11-21T00:40:05;98.25;;;63.13;;
9801;SDS011;4940;50.900;4.672;2023-11-21T00:42:34;95.50;;;61.67;;
9801;SDS011;4940;50.900;4.672;2023-11-21T00:45:02;95.43;;;59.70;;
9801;SDS011;4940;50.900;4.672;2023-11-21T00:47:30;97.85;;;59.17;;
9801;SDS011;4940;50.900;4.672;2023-11-21T00:49:57;101.60;;;61.00;;
9801;SDS011;4940;50.900;4.672;2023-11-21T00:52:26;97.93;;;61.53;;
9801;SDS011;4940;50.900;4.672;2023-11-21T00:54:53;108.95;;;61.63;;
9801;SDS011;4940;50.900;4.672;2023-11-21T00:57:21;103.80;;;61.17;;
9801;SDS011;4940;50.900;4.672;2023-11-21T00:59:48;95.85;;;58.72;;
9801;SDS011;4940;50.900;4.672;2023-11-21T01:02:16;96.50;;;58.03;;
9801;SDS011;4940;50.900;4.672;2023-11-21T01:04:43;105.95;;;60.75;;
9801;SDS011;4940;50.900;4.672;2023-11-21T01:07:10;99.70;;;60.58;;
9801;SDS011;4940;50.900;4.672;2023-11-21T01:09:40;96.30;;;60.70;;
9801;SDS011;4940;50.900;4.672;2023-11-21T01:12:07;111.43;;;59.95;;
9801;SDS011;4940;50.900;4.672;2023-11-21T01:14:34;102.50;;;60.70;;
9801;SDS011;4940;50.900;4.672;2023-11-21T01:17:02;101.57;;;62.17;;
9801;SDS011;4940;50.900;4.672;2023-11-21T01:19:30;102.65;;;61.75;;
9801;SDS011;4940;50.900;4.672;2023-11-21T01:21:57;96.55;;;61.60;;
9801;SDS011;4940;50.900;4.672;2023-11-21T01:24:25;99.32;;;60.85;;
9801;SDS011;4940;50.900;4.672;2023-11-21T01:26:54;92.72;;;60.17;;
9801;SDS011;4940;50.900;4.672;2023-11-21T01:29:21;91.60;;;60.58;;
9801;SDS011;4940;50.900;4.672;2023-11-21T01:31:49;98.53;;;61.03;;
9801;SDS011;4940;50.900;4.672;2023-11-21T01:34:17;94.60;;;58.65;;
9801;SDS011;4940;50.900;4.672;2023-11-21T01:36:45;87.65;;;59.17;;
9801;SDS011;4940;50.900;4.672;2023-11-21T01:39:12;93.55;;;62.83;;
9801;SDS011;4940;50.900;4.672;2023-11-21T01:41:41;108.70;;;69.10;;
9801;SDS011;4940;50.900;4.672;2023-11-21T01:44:11;99.53;;;66.15;;
9801;SDS011;4940;50.900;4.672;2023-11-21T01:46:39;98.97;;;63.28;;
9801;SDS011;4940;50.900;4.672;2023-11-21T01:49:06;98.25;;;66.57;;
9801;SDS011;4940;50.900;4.672;2023-11-21T01:51:35;101.35;;;67.80;;
9801;SDS011;4940;50.900;4.672;2023-11-21T01:54:03;105.45;;;64.93;;
9801;SDS011;4940;50.900;4.672;2023-11-21T01:56:31;96.95;;;63.88;;
9801;SDS011;4940;50.900;4.672;2023-11-21T01:58:59;99.47;;;64.45;;
9801;SDS011;4940;50.900;4.672;2023-11-21T02:01:28;111.68;;;67.72;;
9801;SDS011;4940;50.900;4.672;2023-11-21T02:03:55;89.85;;;64.13;;
9801;SDS011;4940;50.900;4.672;2023-11-21T02:06:22;97.53;;;61.17;;
9801;SDS011;4940;50.900;4.672;2023-11-21T02:08:51;92.15;;;64.50;;
9801;SDS011;4940;50.900;4.672;2023-11-21T02:11:19;102.28;;;65.97;;
9801;SDS011;4940;50.900;4.672;2023-11-21T02:13:46;109.50;;;63.83;;
9801;SDS011;4940;50.900;4.672;2023-11-21T02:16:15;96.72;;;63.55;;
9801;SDS011;4940;50.900;4.672;2023-11-21T02:18:44;99.00;;;67.38;;
9801;SDS011;4940;50.900;4.672;2023-11-21T02:21:12;100.30;;;66.95;;
9801;SDS011;4940;50.900;4.672;2023-11-21T02:23:41;100.95;;;69.15;;
9801;SDS011;4940;50.900;4.672;2023-11-21T02:26:09;117.78;;;69.85;;
9801;SDS011;4940;50.900;4.672;2023-11-21T02:28:37;108.88;;;70.82;;
9801;SDS011;4940;50.900;4.672;2023-11-21T02:31:04;102.75;;;67.75;;
9801;SDS011;4940;50.900;4.672;2023-11-21T02:33:33;105.70;;;68.50;;
9801;SDS011;4940;50.900;4.672;2023-11-21T02:36:00;107.90;;;63.60;;
9801;SDS011;4940;50.900;4.672;2023-11-21T02:38:28;96.38;;;60.00;;
9801;SDS011;4940;50.900;4.672;2023-11-21T02:40:57;110.40;;;74.25;;
9801;SDS011;4940;50.900;4.672;2023-11-21T02:43:24;99.63;;;69.93;;
9801;SDS011;4940;50.900;4.672;2023-11-21T02:45:52;101.15;;;74.32;;
9801;SDS011;4940;50.900;4.672;2023-11-21T02:48:19;101.38;;;72.32;;
9801;SDS011;4940;50.900;4.672;2023-11-21T02:50:49;98.70;;;73.93;;
9801;SDS011;4940;50.900;4.672;2023-11-21T02:53:18;99.72;;;73.05;;
9801;SDS011;4940;50.900;4.672;2023-11-21T02:55:46;111.40;;;69.07;;
9801;SDS011;4940;50.900;4.672;2023-11-21T02:58:14;88.60;;;70.10;;
9801;SDS011;4940;50.900;4.672;2023-11-21T03:00:42;98.32;;;68.90;;
9801;SDS011;4940;50.900;4.672;2023-11-21T03:03:09;101.75;;;68.65;;
9801;SDS011;4940;50.900;4.672;2023-11-21T03:05:37;110.00;;;68.15;;
9801;SDS011;4940;50.900;4.672;2023-11-21T03:08:04;113.53;;;69.60;;
9801;SDS011;4940;50.900;4.672;2023-11-21T03:10:31;103.72;;;68.68;;
9801;SDS011;4940;50.900;4.672;2023-11-21T03:12:59;100.05;;;70.47;;
9801;SDS011;4940;50.900;4.672;2023-11-21T03:15:28;105.70;;;73.38;;
9801;SDS011;4940;50.900;4.672;2023-11-21T03:17:55;107.22;;;73.47;;
9801;SDS011;4940;50.900;4.672;2023-11-21T03:20:23;99.57;;;71.15;;
9801;SDS011;4940;50.900;4.672;2023-11-21T03:22:50;92.38;;;65.88;;
9801;SDS011;4940;50.900;4.672;2023-11-21T03:25:18;100.53;;;69.50;;
9801;SDS011;4940;50.900;4.672;2023-11-21T03:27:45;87.50;;;62.22;;
9801;SDS011;4940;50.900;4.672;2023-11-21T03:30:13;88.97;;;65.45;;
9801;SDS011;4940;50.900;4.672;2023-11-21T03:32:42;95.35;;;62.17;;
9801;SDS011;4940;50.900;4.672;2023-11-21T03:35:09;101.65;;;65.55;;
9801;SDS011;4940;50.900;4.672;2023-11-21T03:37:37;96.93;;;66.93;;
9801;SDS011;4940;50.900;4.672;2023-11-21T03:40:07;94.50;;;62.38;;
9801;SDS011;4940;50.900;4.672;2023-11-21T03:42:35;85.45;;;60.25;;
9801;SDS011;4940;50.900;4.672;2023-11-21T03:45:02;83.93;;;67.43;;
9801;SDS011;4940;50.900;4.672;2023-11-21T03:47:30;89.78;;;66.03;;
9801;SDS011;4940;50.900;4.672;2023-11-21T03:49:59;93.45;;;67.35;;
9801;SDS011;4940;50.900;4.672;2023-11-21T03:52:26;89.63;;;68.25;;
9801;SDS011;4940;50.900;4.672;2023-11-21T03:54:53;90.80;;;66.43;;
9801;SDS011;4940;50.900;4.672;2023-11-21T03:57:21;81.35;;;71.03;;
9801;SDS011;4940;50.900;4.672;2023-11-21T03:59:48;89.38;;;65.80;;
9801;SDS011;4940;50.900;4.672;2023-11-21T04:02:16;89.72;;;68.82;;
9801;SDS011;4940;50.900;4.672;2023-11-21T04:04:43;86.78;;;67.85;;
9801;SDS011;4940;50.900;4.672;2023-11-21T04:07:12;84.72;;;67.38;;
9801;SDS011;4940;50.900;4.672;2023-11-21T04:09:40;88.88;;;74.25;;
9801;SDS011;4940;50.900;4.672;2023-11-21T04:12:08;84.55;;;66.93;;
9801;SDS011;4940;50.900;4.672;2023-11-21T04:14:35;80.80;;;55.30;;
9801;SDS011;4940;50.900;4.672;2023-11-21T04:17:02;79.47;;;56.72;;
9801;SDS011;4940;50.900;4.672;2023-11-21T04:19:30;76.32;;;54.72;;
9801;SDS011;4940;50.900;4.672;2023-11-21T04:21:57;79.50;;;53.58;;
9801;SDS011;4940;50.900;4.672;2023-11-21T04:24:26;73.05;;;54.83;;
9801;SDS011;4940;50.900;4.672;2023-11-21T04:26:54;76.47;;;55.47;;
9801;SDS011;4940;50.900;4.672;2023-11-21T04:29:21;76.90;;;54.38;;
9801;SDS011;4940;50.900;4.672;2023-11-21T04:31:49;83.00;;;57.33;;
9801;SDS011;4940;50.900;4.672;2023-11-21T04:34:16;74.35;;;55.70;;
9801;SDS011;4940;50.900;4.672;2023-11-21T04:36:44;78.40;;;62.63;;
9801;SDS011;4940;50.900;4.672;2023-11-21T04:39:11;79.50;;;59.40;;
9801;SDS011;4940;50.900;4.672;2023-11-21T04:41:40;80.45;;;56.40;;
9801;SDS011;4940;50.900;4.672;2023-11-21T04:44:08;83.82;;;55.17;;
9801;SDS011;4940;50.900;4.672;2023-11-21T04:46:35;71.75;;;53.72;;
9801;SDS011;4940;50.900;4.672;2023-11-21T04:49:03;70.18;;;53.95;;
9801;SDS011;4940;50.900;4.672;2023-11-21T04:51:30;72.82;;;56.30;;
9801;SDS011;4940;50.900;4.672;2023-11-21T04:53:58;81.82;;;57.13;;
9801;SDS011;4940;50.900;4.672;2023-11-21T04:56:26;73.40;;;54.00;;
9801;SDS011;4940;50.900;4.672;2023-11-21T04:58:54;68.78;;;52.05;;
9801;SDS011;4940;50.900;4.672;2023-11-21T05:01:22;74.65;;;55.55;;
9801;SDS011;4940;50.900;4.672;2023-11-21T05:03:49;84.88;;;59.20;;
9801;SDS011;4940;50.900;4.672;2023-11-21T05:06:17;77.47;;;58.13;;
9801;SDS011;4940;50.900;4.672;2023-11-21T05:08:45;79.82;;;59.80;;
9801;SDS011;4940;50.900;4.672;2023-11-21T05:11:22;84.35;;;61.58;;
9801;SDS011;4940;50.900;4.672;2023-11-21T05:13:50;82.50;;;65.32;;
9801;SDS011;4940;50.900;4.672;2023-11-21T05:16:19;77.85;;;54.08;;
9801;SDS011;4940;50.900;4.672;2023-11-21T05:18:47;80.65;;;58.72;;
9801;SDS011;4940;50.900;4.672;2023-11-21T05:21:15;85.60;;;58.38;;
9801;SDS011;4940;50.900;4.672;2023-11-21T05:23:46;77.65;;;57.03;;
9801;SDS011;4940;50.900;4.672;2023-11-21T05:26:13;76.75;;;55.67;;
9801;SDS011;4940;50.900;4.672;2023-11-21T05:28:41;79.20;;;57.22;;
9801;SDS011;4940;50.900;4.672;2023-11-21T05:31:08;77.38;;;57.90;;
9801;SDS011;4940;50.900;4.672;2023-11-21T05:33:37;77.63;;;57.75;;
9801;SDS011;4940;50.900;4.672;2023-11-21T05:36:05;76.70;;;53.88;;
9801;SDS011;4940;50.900;4.672;2023-11-21T05:38:35;77.93;;;54.80;;
9801;SDS011;4940;50.900;4.672;2023-11-21T05:41:02;77.13;;;55.88;;
9801;SDS011;4940;50.900;4.672;2023-11-21T05:43:30;71.43;;;54.42;;
9801;SDS011;4940;50.900;4.672;2023-11-21T05:46:00;77.43;;;55.50;;
9801;SDS011;4940;50.900;4.672;2023-11-21T05:48:27;78.97;;;57.53;;
9801;SDS011;4940;50.900;4.672;2023-11-21T05:50:56;82.72;;;59.00;;
9801;SDS011;4940;50.900;4.672;2023-11-21T05:53:24;83.07;;;68.00;;
9801;SDS011;4940;50.900;4.672;2023-11-21T05:55:51;90.45;;;73.05;;
9801;SDS011;4940;50.900;4.672;2023-11-21T05:58:19;85.15;;;71.65;;
9801;SDS011;4940;50.900;4.672;2023-11-21T06:00:46;88.68;;;79.80;;
9801;SDS011;4940;50.900;4.672;2023-11-21T06:03:14;89.28;;;74.22;;
9801;SDS011;4940;50.900;4.672;2023-11-21T06:05:42;83.78;;;63.40;;
9801;SDS011;4940;50.900;4.672;2023-11-21T06:08:14;84.55;;;60.17;;
9801;SDS011;4940;50.900;4.672;2023-11-21T06:10:43;97.05;;;68.30;;
9801;SDS011;4940;50.900;4.672;2023-11-21T06:13:14;93.88;;;69.15;;
9801;SDS011;4940;50.900;4.672;2023-11-21T06:15:43;94.72;;;72.63;;
9801;SDS011;4940;50.900;4.672;2023-11-21T06:18:10;80.78;;;65.03;;
9801;SDS011;4940;50.900;4.672;2023-11-21T06:20:38;85.45;;;64.72;;
9801;SDS011;4940;50.900;4.672;2023-11-21T06:23:05;89.32;;;68.47;;
9801;SDS011;4940;50.900;4.672;2023-11-21T06:25:34;86.75;;;70.32;;
9801;SDS011;4940;50.900;4.672;2023-11-21T06:28:01;88.53;;;76.28;;
9801;SDS011;4940;50.900;4.672;2023-11-21T06:30:28;91.95;;;73.05;;
9801;SDS011;4940;50.900;4.672;2023-11-21T06:32:56;86.07;;;68.70;;
9801;SDS011;4940;50.900;4.672;2023-11-21T06:35:24;84.65;;;61.22;;
9801;SDS011;4940;50.900;4.672;2023-11-21T06:37:53;85.00;;;59.30;;
9801;SDS011;4940;50.900;4.672;2023-11-21T06:40:20;79.47;;;62.78;;
9801;SDS011;4940;50.900;4.672;2023-11-21T06:42:49;85.68;;;67.10;;
9801;SDS011;4940;50.900;4.672;2023-11-21T06:45:16;90.10;;;69.25;;
9801;SDS011;4940;50.900;4.672;2023-11-21T06:47:45;84.15;;;62.78;;
9801;SDS011;4940;50.900;4.672;2023-11-21T06:50:13;85.00;;;61.35;;
9801;SDS011;4940;50.900;4.672;2023-11-21T06:52:41;84.93;;;68.25;;
9801;SDS011;4940;50.900;4.672;2023-11-21T06:55:09;86.88;;;63.90;;
9801;SDS011;4940;50.900;4.672;2023-11-21T06:57:36;89.13;;;60.28;;
9801;SDS011;4940;50.900;4.672;2023-11-21T07:00:05;84.35;;;60.83;;
9801;SDS011;4940;50.900;4.672;2023-11-21T07:02:34;80.03;;;62.58;;
9801;SDS011;4940;50.900;4.672;2023-11-21T07:05:01;83.85;;;72.00;;
9801;SDS011;4940;50.900;4.672;2023-11-21T07:07:29;84.20;;;65.88;;
9801;SDS011;4940;50.900;4.672;2023-11-21T07:09:56;103.25;;;84.28;;
9801;SDS011;4940;50.900;4.672;2023-11-21T07:12:28;89.65;;;71.95;;
9801;SDS011;4940;50.900;4.672;2023-11-21T07:14:56;89.20;;;79.45;;
9801;SDS011;4940;50.900;4.672;2023-11-21T07:17:25;90.60;;;63.92;;
9801;SDS011;4940;50.900;4.672;2023-11-21T07:19:52;86.05;;;66.20;;
9801;SDS011;4940;50.900;4.672;2023-11-21T07:22:20;80.90;;;62.55;;
9801;SDS011;4940;50.900;4.672;2023-11-21T07:24:48;92.25;;;69.18;;
9801;SDS011;4940;50.900;4.672;2023-11-21T07:27:16;84.88;;;65.22;;
9801;SDS011;4940;50.900;4.672;2023-11-21T07:29:43;83.05;;;58.83;;
9801;SDS011;4940;50.900;4.672;2023-11-21T07:32:11;78.93;;;58.10;;
9801;SDS011;4940;50.900;4.672;2023-11-21T07:34:41;86.28;;;55.92;;
9801;SDS011;4940;50.900;4.672;2023-11-21T07:37:09;91.50;;;57.17;;
9801;SDS011;4940;50.900;4.672;2023-11-21T07:39:36;86.93;;;56.63;;
9801;SDS011;4940;50.900;4.672;2023-11-21T07:42:07;77.93;;;56.50;;
9801;SDS011;4940;50.900;4.672;2023-11-21T07:44:36;90.90;;;56.38;;
9801;SDS011;4940;50.900;4.672;2023-11-21T07:47:03;87.68;;;57.15;;
9801;SDS011;4940;50.900;4.672;2023-11-21T07:49:31;86.30;;;54.15;;
9801;SDS011;4940;50.900;4.672;2023-11-21T07:51:59;95.95;;;56.35;;
9801;SDS011;4940;50.900;4.672;2023-11-21T07:54:27;93.85;;;56.72;;
9801;SDS011;4940;50.900;4.672;2023-11-21T07:56:54;89.20;;;56.40;;
9801;SDS011;4940;50.900;4.672;2023-11-21T07:59:22;87.82;;;54.95;;
9801;SDS011;4940;50.900;4.672;2023-11-21T08:01:49;86.45;;;52.83;;
9801;SDS011;4940;50.900;4.672;2023-11-21T08:04:17;82.65;;;55.15;;
9801;SDS011;4940;50.900;4.672;2023-11-21T08:06:44;88.40;;;55.92;;
9801;SDS011;4940;50.900;4.672;2023-11-21T08:09:14;89.57;;;54.60;;
9801;SDS011;4940;50.900;4.672;2023-11-21T08:11:42;82.88;;;55.85;;
9801;SDS011;4940;50.900;4.672;2023-11-21T08:14:11;90.78;;;56.42;;
9801;SDS011;4940;50.900;4.672;2023-11-21T08:16:40;95.72;;;58.88;;
9801;SDS011;4940;50.900;4.672;2023-11-21T08:19:07;95.13;;;58.80;;
9801;SDS011;4940;50.900;4.672;2023-11-21T08:21:35;91.18;;;56.70;;
9801;SDS011;4940;50.900;4.672;2023-11-21T08:24:03;93.07;;;63.65;;
9801;SDS011;4940;50.900;4.672;2023-11-21T08:26:33;98.65;;;61.85;;
9801;SDS011;4940;50.900;4.672;2023-11-21T08:29:00;90.22;;;65.18;;
9801;SDS011;4940;50.900;4.672;2023-11-21T08:31:28;95.28;;;65.70;;
9801;SDS011;4940;50.900;4.672;2023-11-21T08:33:55;93.45;;;62.60;;
9801;SDS011;4940;50.900;4.672;2023-11-21T08:36:23;100.68;;;71.97;;
9801;SDS011;4940;50.900;4.672;2023-11-21T08:38:50;98.78;;;73.18;;
9801;SDS011;4940;50.900;4.672;2023-11-21T08:41:18;111.10;;;72.05;;
9801;SDS011;4940;50.900;4.672;2023-11-21T08:43:49;105.03;;;71.05;;
9801;SDS011;4940;50.900;4.672;2023-11-21T08:46:17;103.75;;;72.75;;
9801;SDS011;4940;50.900;4.672;2023-11-21T08:48:44;104.90;;;70.10;;
9801;SDS011;4940;50.900;4.672;2023-11-21T08:51:12;108.15;;;67.53;;
9801;SDS011;4940;50.900;4.672;2023-11-21T08:53:40;113.53;;;74.60;;
9801;SDS011;4940;50.900;4.672;2023-11-21T08:56:08;117.57;;;73.35;;
9801;SDS011;4940;50.900;4.672;2023-11-21T08:58:39;105.85;;;72.65;;
9801;SDS011;4940;50.900;4.672;2023-11-21T09:01:08;102.63;;;67.25;;
9801;SDS011;4940;50.900;4.672;2023-11-21T09:03:35;106.43;;;67.15;;
9801;SDS011;4940;50.900;4.672;2023-11-21T09:06:03;99.95;;;64.35;;
9801;SDS011;4940;50.900;4.672;2023-11-21T09:08:30;102.30;;;65.25;;
9801;SDS011;4940;50.900;4.672;2023-11-21T09:10:58;102.20;;;64.40;;
9801;SDS011;4940;50.900;4.672;2023-11-21T09:13:25;97.22;;;66.43;;
9801;SDS011;4940;50.900;4.672;2023-11-21T09:15:53;99.07;;;67.75;;
9801;SDS011;4940;50.900;4.672;2023-11-21T09:18:22;102.38;;;67.70;;
9801;SDS011;4940;50.900;4.672;2023-11-21T09:20:49;100.10;;;70.07;;
9801;SDS011;4940;50.900;4.672;2023-11-21T09:23:17;101.35;;;65.95;;
9801;SDS011;4940;50.900;4.672;2023-11-21T09:25:44;102.15;;;67.00;;
9801;SDS011;4940;50.900;4.672;2023-11-21T09:28:15;100.03;;;64.85;;
9801;SDS011;4940;50.900;4.672;2023-11-21T09:30:43;100.65;;;67.82;;
9801;SDS011;4940;50.900;4.672;2023-11-21T09:33:10;98.05;;;69.15;;
9801;SDS011;4940;50.900;4.672;2023-11-21T09:35:39;95.93;;;67.50;;
9801;SDS011;4940;50.900;4.672;2023-11-21T09:38:09;102.57;;;67.80;;
9801;SDS011;4940;50.900;4.672;2023-11-21T09:40:37;89.72;;;68.15;;
9801;SDS011;4940;50.900;4.672;2023-11-21T09:43:05;99.25;;;66.00;;
9801;SDS011;4940;50.900;4.672;2023-11-21T09:45:41;99.30;;;64.55;;
9801;SDS011;4940;50.900;4.672;2023-11-21T09:48:12;110.10;;;68.80;;
9801;SDS011;4940;50.900;4.672;2023-11-21T09:50:42;97.40;;;65.28;;
9801;SDS011;4940;50.900;4.672;2023-11-21T09:53:13;103.38;;;67.80;;
9801;SDS011;4940;50.900;4.672;2023-11-21T09:55:44;93.45;;;63.20;;
9801;SDS011;4940;50.900;4.672;2023-11-21T09:58:13;88.88;;;61.15;;
9801;SDS011;4940;50.900;4.672;2023-11-21T10:00:41;94.03;;;62.90;;
9801;SDS011;4940;50.900;4.672;2023-11-21T10:03:09;97.63;;;62.22;;
9801;SDS011;4940;50.900;4.672;2023-11-21T10:05:37;93.72;;;64.60;;
9801;SDS011;4940;50.900;4.672;2023-11-21T10:08:07;99.63;;;65.53;;
9801;SDS011;4940;50.900;4.672;2023-11-21T10:10:36;93.95;;;64.10;;
9801;SDS011;4940;50.900;4.672;2023-11-21T10:13:06;93.03;;;65.63;;
9801;SDS011;4940;50.900;4.672;2023-11-21T10:15:37;98.90;;;66.63;;
9801;SDS011;4940;50.900;4.672;2023-11-21T10:18:05;107.88;;;67.20;;
9801;SDS011;4940;50.900;4.672;2023-11-21T10:20:34;104.85;;;67.55;;
9801;SDS011;4940;50.900;4.672;2023-11-21T10:23:03;97.88;;;65.40;;
9801;SDS011;4940;50.900;4.672;2023-11-21T10:25:34;104.63;;;66.97;;
9801;SDS011;4940;50.900;4.672;2023-11-21T10:28:02;108.10;;;69.18;;
9801;SDS011;4940;50.900;4.672;2023-11-21T10:30:32;110.65;;;69.75;;
9801;SDS011;4940;50.900;4.672;2023-11-21T10:33:02;112.05;;;71.50;;
9801;SDS011;4940;50.900;4.672;2023-11-21T10:35:39;106.05;;;67.40;;
9801;SDS011;4940;50.900;4.672;2023-11-21T10:38:14;112.47;;;69.78;;
9801;SDS011;4940;50.900;4.672;2023-11-21T10:40:42;118.70;;;70.47;;
9801;SDS011;4940;50.900;4.672;2023-11-21T10:43:11;112.03;;;70.90;;
9801;SDS011;4940;50.900;4.672;2023-11-21T10:45:40;110.95;;;64.68;;
9801;SDS011;4940;50.900;4.672;2023-11-21T10:48:08;98.20;;;64.20;;
9801;SDS011;4940;50.900;4.672;2023-11-21T10:50:40;109.45;;;62.03;;
9801;SDS011;4940;50.900;4.672;2023-11-21T10:53:09;97.15;;;61.53;;
9801;SDS011;4940;50.900;4.672;2023-11-21T10:55:37;98.35;;;62.75;;
9801;SDS011;4940;50.900;4.672;2023-11-21T10:58:06;98.88;;;65.35;;
9801;SDS011;4940;50.900;4.672;2023-11-21T11:00:36;90.28;;;63.70;;
9801;SDS011;4940;50.900;4.672;2023-11-21T11:03:05;104.50;;;68.13;;
9801;SDS011;4940;50.900;4.672;2023-11-21T11:05:39;104.13;;;65.90;;
9801;SDS011;4940;50.900;4.672;2023-11-21T11:08:11;98.53;;;66.60;;
9801;SDS011;4940;50.900;4.672;2023-11-21T11:10:44;94.70;;;67.78;;
9801;SDS011;4940;50.900;4.672;2023-11-21T11:13:13;94.43;;;66.93;;
9801;SDS011;4940;50.900;4.672;2023-11-21T11:15:41;97.25;;;67.68;;
9801;SDS011;4940;50.900;4.672;2023-11-21T11:18:09;98.68;;;68.18;;
9801;SDS011;4940;50.900;4.672;2023-11-21T11:20:37;102.68;;;68.97;;
9801;SDS011;4940;50.900;4.672;2023-11-21T11:23:17;87.00;;;63.10;;
9801;SDS011;4940;50.900;4.672;2023-11-21T11:26:01;99.95;;;67.13;;
9801;SDS011;4940;50.900;4.672;2023-11-21T11:28:38;96.32;;;69.38;;
9801;SDS011;4940;50.900;4.672;2023-11-21T11:31:14;89.10;;;67.80;;
9801;SDS011;4940;50.900;4.672;2023-11-21T11:33:52;94.75;;;65.45;;
9801;SDS011;4940;50.900;4.672;2023-11-21T11:36:25;88.80;;;63.42;;
9801;SDS011;4940;50.900;4.672;2023-11-21T11:38:57;90.88;;;66.75;;
9801;SDS011;4940;50.900;4.672;2023-11-21T11:41:27;88.32;;;63.85;;
9801;SDS011;4940;50.900;4.672;2023-11-21T11:43:59;91.03;;;65.32;;
9801;SDS011;4940;50.900;4.672;2023-11-21T11:46:40;86.05;;;64.63;;
9801;SDS011;4940;50.900;4.672;2023-11-21T11:49:08;95.57;;;66.93;;
9801;SDS011;4940;50.900;4.672;2023-11-21T11:51:36;91.38;;;66.30;;
9801;SDS011;4940;50.900;4.672;2023-11-21T11:54:05;90.60;;;69.25;;
9801;SDS011;4940;50.900;4.672;2023-11-21T11:56:33;90.65;;;66.93;;
9801;SDS011;4940;50.900;4.672;2023-11-21T11:59:04;85.80;;;71.13;;
9801;SDS011;4940;50.900;4.672;2023-11-21T12:01:34;84.72;;;67.00;;
9801;SDS011;4940;50.900;4.672;2023-11-21T12:07:00;84.45;;;65.22;;
9801;SDS011;4940;50.900;4.672;2023-11-21T12:09:31;86.28;;;65.43;;
9801;SDS011;4940;50.900;4.672;2023-11-21T12:12:01;85.85;;;68.53;;
9801;SDS011;4940;50.900;4.672;2023-11-21T12:14:31;87.40;;;66.32;;
9801;SDS011;4940;50.900;4.672;2023-11-21T12:16:59;85.53;;;67.93;;
9801;SDS011;4940;50.900;4.672;2023-11-21T12:19:28;81.28;;;63.00;;
9801;SDS011;4940;50.900;4.672;2023-11-21T12:21:55;74.05;;;61.38;;
9801;SDS011;4940;50.900;4.672;2023-11-21T12:24:22;70.13;;;56.95;;
9801;SDS011;4940;50.900;4.672;2023-11-21T12:26:51;67.03;;;56.08;;
9801;SDS011;4940;50.900;4.672;2023-11-21T12:29:18;70.70;;;58.70;;
9801;SDS011;4940;50.900;4.672;2023-11-21T12:31:50;64.47;;;56.13;;
9801;SDS011;4940;50.900;4.672;2023-11-21T12:34:17;64.30;;;53.97;;
9801;SDS011;4940;50.900;4.672;2023-11-21T12:36:45;62.58;;;54.63;;
9801;SDS011;4940;50.900;4.672;2023-11-21T12:39:12;64.63;;;54.78;;
9801;SDS011;4940;50.900;4.672;2023-11-21T12:41:40;59.38;;;52.83;;
9801;SDS011;4940;50.900;4.672;2023-11-21T12:44:09;63.78;;;54.88;;
9801;SDS011;4940;50.900;4.672;2023-11-21T12:46:41;62.58;;;55.83;;
9801;SDS011;4940;50.900;4.672;2023-11-21T12:49:11;62.67;;;54.58;;
9801;SDS011;4940;50.900;4.672;2023-11-21T12:51:43;62.35;;;55.60;;
9801;SDS011;4940;50.900;4.672;2023-11-21T12:54:11;61.08;;;54.45;;
9801;SDS011;4940;50.900;4.672;2023-11-21T12:56:39;64.13;;;57.00;;
9801;SDS011;4940;50.900;4.672;2023-11-21T12:59:06;65.18;;;57.15;;
9801;SDS011;4940;50.900;4.672;2023-11-21T13:01:41;63.63;;;56.70;;
9801;SDS011;4940;50.900;4.672;2023-11-21T13:04:08;62.85;;;55.92;;
9801;SDS011;4940;50.900;4.672;2023-11-21T13:06:38;69.55;;;58.10;;
9801;SDS011;4940;50.900;4.672;2023-11-21T13:09:06;65.68;;;57.47;;
9801;SDS011;4940;50.900;4.672;2023-11-21T13:11:36;65.03;;;55.40;;
9801;SDS011;4940;50.900;4.672;2023-11-21T13:14:06;62.70;;;55.90;;
9801;SDS011;4940;50.900;4.672;2023-11-21T13:16:36;64.15;;;57.30;;
9801;SDS011;4940;50.900;4.672;2023-11-21T13:19:04;67.10;;;59.70;;
9801;SDS011;4940;50.900;4.672;2023-11-21T13:21:34;63.22;;;56.33;;
9801;SDS011;4940;50.900;4.672;2023-11-21T13:24:03;61.78;;;55.20;;
9801;SDS011;4940;50.900;4.672;2023-11-21T13:26:30;65.03;;;58.05;;
9801;SDS011;4940;50.900;4.672;2023-11-21T13:28:58;61.67;;;54.35;;
9801;SDS011;4940;50.900;4.672;2023-11-21T13:31:26;62.70;;;56.10;;
9801;SDS011;4940;50.900;4.672;2023-11-21T13:33:58;63.88;;;56.95;;
9801;SDS011;4940;50.900;4.672;2023-11-21T13:36:30;65.35;;;57.70;;
9801;SDS011;4940;50.900;4.672;2023-11-21T13:38:58;64.60;;;57.53;;
9801;SDS011;4940;50.900;4.672;2023-11-21T13:41:34;65.22;;;58.40;;
9801;SDS011;4940;50.900;4.672;2023-11-21T13:44:03;64.20;;;57.58;;
9801;SDS011;4940;50.900;4.672;2023-11-21T13:46:40;63.60;;;57.05;;
9801;SDS011;4940;50.900;4.672;2023-11-21T13:49:08;61.03;;;54.42;;
9801;SDS011;4940;50.900;4.672;2023-11-21T13:51:36;56.40;;;50.40;;
9801;SDS011;4940;50.900;4.672;2023-11-21T13:54:08;60.45;;;53.95;;
9801;SDS011;4940;50.900;4.672;2023-11-21T13:56:37;64.43;;;57.63;;
9801;SDS011;4940;50.900;4.672;2023-11-21T13:59:06;64.88;;;57.97;;
9801;SDS011;4940;50.900;4.672;2023-11-21T14:01:43;61.08;;;54.78;;
9801;SDS011;4940;50.900;4.672;2023-11-21T14:04:21;59.90;;;53.60;;
9801;SDS011;4940;50.900;4.672;2023-11-21T14:07:04;60.28;;;53.97;;
9801;SDS011;4940;50.900;4.672;2023-11-21T14:09:47;60.00;;;53.90;;
9801;SDS011;4940;50.900;4.672;2023-11-21T14:12:17;56.88;;;50.97;;
9801;SDS011;4940;50.900;4.672;2023-11-21T14:14:44;55.80;;;49.78;;
9801;SDS011;4940;50.900;4.672;2023-11-21T14:17:13;56.45;;;50.63;;
9801;SDS011;4940;50.900;4.672;2023-11-21T14:19:40;58.17;;;51.97;;
9801;SDS011;4940;50.900;4.672;2023-11-21T14:22:08;58.28;;;52.35;;
9801;SDS011;4940;50.900;4.672;2023-11-21T14:24:36;63.22;;;56.72;;
9801;SDS011;4940;50.900;4.672;2023-11-21T14:27:09;58.30;;;52.42;;
9801;SDS011;4940;50.900;4.672;2023-11-21T14:29:38;60.67;;;54.60;;
9801;SDS011;4940;50.900;4.672;2023-11-21T14:32:08;58.90;;;52.97;;
9801;SDS011;4940;50.900;4.672;2023-11-21T14:34:36;58.08;;;52.17;;
9801;SDS011;4940;50.900;4.672;2023-11-21T14:37:04;60.10;;;53.80;;
9801;SDS011;4940;50.900;4.672;2023-11-21T14:39:32;59.30;;;52.90;;
9801;SDS011;4940;50.900;4.672;2023-11-21T14:42:05;59.90;;;53.53;;
9801;SDS011;4940;50.900;4.672;2023-11-21T14:44:33;59.17;;;53.17;;
9801;SDS011;4940;50.900;4.672;2023-11-21T14:47:02;58.08;;;52.17;;
9801;SDS011;4940;50.900;4.672;2023-11-21T14:49:32;58.20;;;52.40;;
9801;SDS011;4940;50.900;4.672;2023-11-21T14:52:13;53.83;;;48.20;;
9801;SDS011;4940;50.900;4.672;2023-11-21T14:54:56;53.55;;;48.05;;
9801;SDS011;4940;50.900;4.672;2023-11-21T14:57:45;53.88;;;48.30;;